Terminal Aerodrome Forecast
Issued by NWS

Home | Current Version | Previous Version | Text Only | Print | Product List | Glossary On
Versions: 1 2 3 4 5 6 7 8 9 10 11 12 13 14 15 16 17 18 19 20 21 22 23 24 25 26 27
001
FTUS43 KLSX 231525 AAB
TAFUIN
TAF AMD
KUIN 231525Z 2315/2412 33010KT P6SM OVC015
     FM232100 31007KT P6SM OVC015
     FM240100 VRB03KT P6SM OVC025
     FM240600 14004KT P6SM BKN040=

USA.gov is the U.S. government's official web portal to all federal, state and local government web resources and services.